sensor_id;sensor_type;location;lat;lon;timestamp;P1;durP1;ratioP1;P2;durP2;ratioP2
34144;SDS011;69555;53.014;8.886;2023-11-21T00:00:37;42.65;;;17.75;;
34144;SDS011;69555;53.014;8.886;2023-11-21T00:03:04;43.72;;;17.02;;
34144;SDS011;69555;53.014;8.886;2023-11-21T00:05:30;39.28;;;17.60;;
34144;SDS011;69555;53.014;8.886;2023-11-21T00:07:56;49.22;;;18.20;;
34144;SDS011;69555;53.014;8.886;2023-11-21T00:10:23;46.78;;;17.73;;
34144;SDS011;69555;53.014;8.886;2023-11-21T00:12:49;53.47;;;18.27;;
34144;SDS011;69555;53.014;8.886;2023-11-21T00:15:16;52.55;;;18.02;;
34144;SDS011;69555;53.014;8.886;2023-11-21T00:17:42;55.08;;;19.27;;
34144;SDS011;69555;53.014;8.886;2023-11-21T00:20:09;44.45;;;17.25;;
34144;SDS011;69555;53.014;8.886;2023-11-21T00:22:39;43.47;;;18.52;;
34144;SDS011;69555;53.014;8.886;2023-11-21T00:25:07;47.10;;;19.40;;
34144;SDS011;69555;53.014;8.886;2023-11-21T00:27:36;43.53;;;20.13;;
34144;SDS011;69555;53.014;8.886;2023-11-21T00:30:03;45.10;;;18.35;;
34144;SDS011;69555;53.014;8.886;2023-11-21T00:32:32;50.15;;;18.70;;
34144;SDS011;69555;53.014;8.886;2023-11-21T00:34:58;49.67;;;19.23;;
34144;SDS011;69555;53.014;8.886;2023-11-21T00:37:25;48.72;;;19.63;;
34144;SDS011;69555;53.014;8.886;2023-11-21T00:39:51;39.05;;;17.63;;
34144;SDS011;69555;53.014;8.886;2023-11-21T00:42:18;71.80;;;24.85;;
34144;SDS011;69555;53.014;8.886;2023-11-21T00:44:45;56.35;;;21.80;;
34144;SDS011;69555;53.014;8.886;2023-11-21T00:47:11;90.18;;;28.48;;
34144;SDS011;69555;53.014;8.886;2023-11-21T00:49:38;63.17;;;21.75;;
34144;SDS011;69555;53.014;8.886;2023-11-21T00:52:05;101.88;;;33.47;;
34144;SDS011;69555;53.014;8.886;2023-11-21T00:54:32;58.85;;;24.25;;
34144;SDS011;69555;53.014;8.886;2023-11-21T00:56:59;61.75;;;22.17;;
34144;SDS011;69555;53.014;8.886;2023-11-21T00:59:26;51.90;;;20.92;;
34144;SDS011;69555;53.014;8.886;2023-11-21T01:01:53;51.80;;;20.45;;
34144;SDS011;69555;53.014;8.886;2023-11-21T01:04:20;65.22;;;21.58;;
34144;SDS011;69555;53.014;8.886;2023-11-21T01:06:47;48.83;;;19.55;;
34144;SDS011;69555;53.014;8.886;2023-11-21T01:09:13;89.72;;;30.45;;
34144;SDS011;69555;53.014;8.886;2023-11-21T01:11:40;60.78;;;23.45;;
34144;SDS011;69555;53.014;8.886;2023-11-21T01:14:06;50.72;;;21.20;;
34144;SDS011;69555;53.014;8.886;2023-11-21T01:16:35;67.80;;;24.40;;
34144;SDS011;69555;53.014;8.886;2023-11-21T01:19:01;74.00;;;25.80;;
34144;SDS011;69555;53.014;8.886;2023-11-21T01:21:28;57.30;;;23.38;;
34144;SDS011;69555;53.014;8.886;2023-11-21T01:23:55;58.78;;;23.73;;
34144;SDS011;69555;53.014;8.886;2023-11-21T01:26:22;74.00;;;23.88;;
34144;SDS011;69555;53.014;8.886;2023-11-21T01:28:49;61.78;;;22.17;;
34144;SDS011;69555;53.014;8.886;2023-11-21T01:31:15;81.72;;;25.58;;
34144;SDS011;69555;53.014;8.886;2023-11-21T01:33:42;62.55;;;24.40;;
34144;SDS011;69555;53.014;8.886;2023-11-21T01:36:09;95.75;;;34.58;;
34144;SDS011;69555;53.014;8.886;2023-11-21T01:38:36;92.65;;;31.77;;
34144;SDS011;69555;53.014;8.886;2023-11-21T01:41:03;72.10;;;24.30;;
34144;SDS011;69555;53.014;8.886;2023-11-21T01:43:30;65.13;;;24.92;;
34144;SDS011;69555;53.014;8.886;2023-11-21T01:45:58;56.70;;;24.45;;
34144;SDS011;69555;53.014;8.886;2023-11-21T01:48:25;62.58;;;24.52;;
34144;SDS011;69555;53.014;8.886;2023-11-21T01:50:53;64.60;;;23.55;;
34144;SDS011;69555;53.014;8.886;2023-11-21T01:53:19;71.82;;;23.10;;
34144;SDS011;69555;53.014;8.886;2023-11-21T01:55:46;65.47;;;23.55;;
34144;SDS011;69555;53.014;8.886;2023-11-21T01:58:13;65.07;;;22.42;;
34144;SDS011;69555;53.014;8.886;2023-11-21T02:00:40;65.22;;;22.55;;
34144;SDS011;69555;53.014;8.886;2023-11-21T02:03:07;58.75;;;23.85;;
34144;SDS011;69555;53.014;8.886;2023-11-21T02:05:35;82.03;;;29.30;;
34144;SDS011;69555;53.014;8.886;2023-11-21T02:08:02;63.58;;;23.60;;
34144;SDS011;69555;53.014;8.886;2023-11-21T02:10:30;59.58;;;22.48;;
34144;SDS011;69555;53.014;8.886;2023-11-21T02:12:59;53.38;;;21.42;;
34144;SDS011;69555;53.014;8.886;2023-11-21T02:15:28;56.35;;;21.35;;
34144;SDS011;69555;53.014;8.886;2023-11-21T02:17:55;74.45;;;23.17;;
34144;SDS011;69555;53.014;8.886;2023-11-21T02:20:24;63.80;;;23.92;;
34144;SDS011;69555;53.014;8.886;2023-11-21T02:22:53;53.42;;;24.92;;
34144;SDS011;69555;53.014;8.886;2023-11-21T02:25:32;71.53;;;23.05;;
34144;SDS011;69555;53.014;8.886;2023-11-21T02:27:59;58.67;;;23.92;;
34144;SDS011;69555;53.014;8.886;2023-11-21T02:30:27;61.33;;;23.38;;
34144;SDS011;69555;53.014;8.886;2023-11-21T02:32:54;66.97;;;28.20;;
34144;SDS011;69555;53.014;8.886;2023-11-21T02:35:23;52.78;;;22.88;;
34144;SDS011;69555;53.014;8.886;2023-11-21T02:37:52;50.70;;;24.20;;
34144;SDS011;69555;53.014;8.886;2023-11-21T02:40:19;52.42;;;23.90;;
34144;SDS011;69555;53.014;8.886;2023-11-21T02:42:51;58.47;;;22.33;;
34144;SDS011;69555;53.014;8.886;2023-11-21T02:45:18;54.80;;;23.98;;
34144;SDS011;69555;53.014;8.886;2023-11-21T02:47:46;56.10;;;24.50;;
34144;SDS011;69555;53.014;8.886;2023-11-21T02:50:13;51.78;;;23.30;;
34144;SDS011;69555;53.014;8.886;2023-11-21T02:52:39;51.20;;;23.60;;
34144;SDS011;69555;53.014;8.886;2023-11-21T02:55:06;76.32;;;30.23;;
34144;SDS011;69555;53.014;8.886;2023-11-21T02:57:39;59.55;;;25.52;;
34144;SDS011;69555;53.014;8.886;2023-11-21T03:00:05;52.50;;;23.73;;
34144;SDS011;69555;53.014;8.886;2023-11-21T03:02:36;54.83;;;25.23;;
34144;SDS011;69555;53.014;8.886;2023-11-21T03:05:05;61.78;;;24.75;;
34144;SDS011;69555;53.014;8.886;2023-11-21T03:07:32;60.20;;;24.05;;
34144;SDS011;69555;53.014;8.886;2023-11-21T03:09:58;63.13;;;24.52;;
34144;SDS011;69555;53.014;8.886;2023-11-21T03:12:24;52.28;;;23.85;;
34144;SDS011;69555;53.014;8.886;2023-11-21T03:14:52;53.38;;;24.73;;
34144;SDS011;69555;53.014;8.886;2023-11-21T03:17:20;53.15;;;23.35;;
34144;SDS011;69555;53.014;8.886;2023-11-21T03:19:47;57.33;;;22.80;;
34144;SDS011;69555;53.014;8.886;2023-11-21T03:22:14;39.50;;;18.77;;
34144;SDS011;69555;53.014;8.886;2023-11-21T03:24:39;40.85;;;18.17;;
34144;SDS011;69555;53.014;8.886;2023-11-21T03:27:05;40.25;;;17.83;;
34144;SDS011;69555;53.014;8.886;2023-11-21T03:29:31;44.83;;;19.83;;
34144;SDS011;69555;53.014;8.886;2023-11-21T03:31:58;48.47;;;20.42;;
34144;SDS011;69555;53.014;8.886;2023-11-21T03:34:25;49.17;;;20.48;;
34144;SDS011;69555;53.014;8.886;2023-11-21T03:36:53;41.55;;;19.55;;
34144;SDS011;69555;53.014;8.886;2023-11-21T03:39:20;51.80;;;20.60;;
34144;SDS011;69555;53.014;8.886;2023-11-21T03:41:46;49.30;;;21.15;;
34144;SDS011;69555;53.014;8.886;2023-11-21T03:44:13;53.88;;;20.23;;
34144;SDS011;69555;53.014;8.886;2023-11-21T03:46:40;48.97;;;21.65;;
34144;SDS011;69555;53.014;8.886;2023-11-21T03:49:07;50.65;;;21.17;;
34144;SDS011;69555;53.014;8.886;2023-11-21T03:51:35;62.05;;;24.08;;
34144;SDS011;69555;53.014;8.886;2023-11-21T03:54:01;59.50;;;24.30;;
34144;SDS011;69555;53.014;8.886;2023-11-21T03:56:28;60.67;;;25.65;;
34144;SDS011;69555;53.014;8.886;2023-11-21T03:58:56;63.95;;;26.65;;
34144;SDS011;69555;53.014;8.886;2023-11-21T04:01:23;69.13;;;26.35;;
34144;SDS011;69555;53.014;8.886;2023-11-21T04:03:50;74.32;;;27.42;;
34144;SDS011;69555;53.014;8.886;2023-11-21T04:06:17;53.67;;;26.38;;
34144;SDS011;69555;53.014;8.886;2023-11-21T04:08:44;67.00;;;29.70;;
34144;SDS011;69555;53.014;8.886;2023-11-21T04:11:11;54.30;;;20.52;;
34144;SDS011;69555;53.014;8.886;2023-11-21T04:13:39;35.65;;;14.90;;
34144;SDS011;69555;53.014;8.886;2023-11-21T04:16:11;36.58;;;15.80;;
34144;SDS011;69555;53.014;8.886;2023-11-21T04:18:38;37.20;;;17.73;;
34144;SDS011;69555;53.014;8.886;2023-11-21T04:21:05;39.08;;;14.88;;
34144;SDS011;69555;53.014;8.886;2023-11-21T04:23:32;30.17;;;12.30;;
34144;SDS011;69555;53.014;8.886;2023-11-21T04:25:59;27.63;;;11.90;;
34144;SDS011;69555;53.014;8.886;2023-11-21T04:28:28;29.40;;;12.32;;
34144;SDS011;69555;53.014;8.886;2023-11-21T04:30:55;31.35;;;12.77;;
34144;SDS011;69555;53.014;8.886;2023-11-21T04:33:21;37.45;;;16.08;;
34144;SDS011;69555;53.014;8.886;2023-11-21T04:35:48;46.95;;;21.80;;
34144;SDS011;69555;53.014;8.886;2023-11-21T04:38:15;53.80;;;23.38;;
34144;SDS011;69555;53.014;8.886;2023-11-21T04:40:41;32.97;;;15.70;;
34144;SDS011;69555;53.014;8.886;2023-11-21T04:43:08;31.80;;;15.32;;
34144;SDS011;69555;53.014;8.886;2023-11-21T04:45:36;43.33;;;16.95;;
34144;SDS011;69555;53.014;8.886;2023-11-21T04:48:03;29.27;;;13.40;;
34144;SDS011;69555;53.014;8.886;2023-11-21T04:50:30;26.02;;;13.02;;
34144;SDS011;69555;53.014;8.886;2023-11-21T04:52:56;23.60;;;11.50;;
34144;SDS011;69555;53.014;8.886;2023-11-21T04:55:23;23.15;;;11.75;;
34144;SDS011;69555;53.014;8.886;2023-11-21T04:57:49;30.13;;;14.35;;
34144;SDS011;69555;53.014;8.886;2023-11-21T05:00:16;25.90;;;12.10;;
34144;SDS011;69555;53.014;8.886;2023-11-21T05:02:43;26.25;;;13.13;;
34144;SDS011;69555;53.014;8.886;2023-11-21T05:05:10;28.50;;;13.07;;
34144;SDS011;69555;53.014;8.886;2023-11-21T05:07:37;27.17;;;13.07;;
34144;SDS011;69555;53.014;8.886;2023-11-21T05:10:05;22.60;;;12.48;;
34144;SDS011;69555;53.014;8.886;2023-11-21T05:12:38;27.42;;;13.73;;
34144;SDS011;69555;53.014;8.886;2023-11-21T05:15:05;31.83;;;13.57;;
34144;SDS011;69555;53.014;8.886;2023-11-21T05:17:39;27.77;;;13.07;;
34144;SDS011;69555;53.014;8.886;2023-11-21T05:20:09;29.20;;;13.90;;
34144;SDS011;69555;53.014;8.886;2023-11-21T05:22:37;32.30;;;15.65;;
34144;SDS011;69555;53.014;8.886;2023-11-21T05:25:04;28.27;;;14.45;;
34144;SDS011;69555;53.014;8.886;2023-11-21T05:27:31;33.42;;;15.65;;
34144;SDS011;69555;53.014;8.886;2023-11-21T05:29:57;32.08;;;16.02;;
34144;SDS011;69555;53.014;8.886;2023-11-21T05:32:24;34.03;;;17.08;;
34144;SDS011;69555;53.014;8.886;2023-11-21T05:34:52;35.50;;;16.88;;
34144;SDS011;69555;53.014;8.886;2023-11-21T05:37:18;29.33;;;15.70;;
34144;SDS011;69555;53.014;8.886;2023-11-21T05:39:45;39.85;;;18.02;;
34144;SDS011;69555;53.014;8.886;2023-11-21T05:42:13;37.45;;;17.13;;
34144;SDS011;69555;53.014;8.886;2023-11-21T05:44:41;34.25;;;17.98;;
34144;SDS011;69555;53.014;8.886;2023-11-21T05:47:11;40.22;;;17.77;;
34144;SDS011;69555;53.014;8.886;2023-11-21T05:49:39;38.90;;;18.38;;
34144;SDS011;69555;53.014;8.886;2023-11-21T05:52:06;31.55;;;15.60;;
34144;SDS011;69555;53.014;8.886;2023-11-21T05:54:33;32.40;;;16.10;;
34144;SDS011;69555;53.014;8.886;2023-11-21T05:57:00;35.78;;;15.52;;
34144;SDS011;69555;53.014;8.886;2023-11-21T05:59:26;28.73;;;13.75;;
34144;SDS011;69555;53.014;8.886;2023-11-21T06:01:53;23.40;;;12.88;;
34144;SDS011;69555;53.014;8.886;2023-11-21T06:04:20;24.27;;;12.77;;
34144;SDS011;69555;53.014;8.886;2023-11-21T06:06:51;24.25;;;12.85;;
34144;SDS011;69555;53.014;8.886;2023-11-21T06:09:19;19.70;;;10.80;;
34144;SDS011;69555;53.014;8.886;2023-11-21T06:11:47;20.98;;;10.60;;
34144;SDS011;69555;53.014;8.886;2023-11-21T06:14:13;16.15;;;10.35;;
34144;SDS011;69555;53.014;8.886;2023-11-21T06:16:44;22.83;;;10.82;;
34144;SDS011;69555;53.014;8.886;2023-11-21T06:19:11;18.23;;;10.68;;
34144;SDS011;69555;53.014;8.886;2023-11-21T06:21:38;17.48;;;11.07;;
34144;SDS011;69555;53.014;8.886;2023-11-21T06:24:05;18.40;;;11.88;;
34144;SDS011;69555;53.014;8.886;2023-11-21T06:26:31;21.30;;;11.77;;
34144;SDS011;69555;53.014;8.886;2023-11-21T06:28:58;25.70;;;13.50;;
34144;SDS011;69555;53.014;8.886;2023-11-21T06:31:25;23.00;;;12.32;;
34144;SDS011;69555;53.014;8.886;2023-11-21T06:33:52;19.63;;;12.27;;
34144;SDS011;69555;53.014;8.886;2023-11-21T06:36:19;20.33;;;10.93;;
34144;SDS011;69555;53.014;8.886;2023-11-21T06:38:45;23.38;;;12.23;;
34144;SDS011;69555;53.014;8.886;2023-11-21T06:41:12;20.85;;;11.27;;
34144;SDS011;69555;53.014;8.886;2023-11-21T06:43:42;21.10;;;10.73;;
34144;SDS011;69555;53.014;8.886;2023-11-21T06:46:12;21.50;;;11.10;;
34144;SDS011;69555;53.014;8.886;2023-11-21T06:48:45;18.83;;;11.85;;
34144;SDS011;69555;53.014;8.886;2023-11-21T06:53:39;21.25;;;11.63;;
34144;SDS011;69555;53.014;8.886;2023-11-21T06:56:15;22.35;;;12.05;;
34144;SDS011;69555;53.014;8.886;2023-11-21T06:58:42;20.88;;;12.88;;
34144;SDS011;69555;53.014;8.886;2023-11-21T07:01:12;22.35;;;12.20;;
34144;SDS011;69555;53.014;8.886;2023-11-21T07:03:39;20.65;;;11.45;;
34144;SDS011;69555;53.014;8.886;2023-11-21T07:06:07;21.98;;;11.55;;
34144;SDS011;69555;53.014;8.886;2023-11-21T07:08:34;20.90;;;11.35;;
34144;SDS011;69555;53.014;8.886;2023-11-21T07:11:01;17.75;;;11.20;;
34144;SDS011;69555;53.014;8.886;2023-11-21T07:13:29;20.73;;;11.27;;
34144;SDS011;69555;53.014;8.886;2023-11-21T07:15:57;19.23;;;12.18;;
34144;SDS011;69555;53.014;8.886;2023-11-21T07:18:25;21.60;;;11.52;;
34144;SDS011;69555;53.014;8.886;2023-11-21T07:20:51;19.50;;;11.38;;
34144;SDS011;69555;53.014;8.886;2023-11-21T07:23:18;20.35;;;11.45;;
34144;SDS011;69555;53.014;8.886;2023-11-21T07:25:44;20.50;;;11.77;;
34144;SDS011;69555;53.014;8.886;2023-11-21T07:28:11;30.17;;;11.63;;
34144;SDS011;69555;53.014;8.886;2023-11-21T07:30:38;23.60;;;13.52;;
34144;SDS011;69555;53.014;8.886;2023-11-21T07:33:04;24.80;;;12.43;;
34144;SDS011;69555;53.014;8.886;2023-11-21T07:38:01;22.38;;;12.80;;
34144;SDS011;69555;53.014;8.886;2023-11-21T07:40:26;25.40;;;12.23;;
34144;SDS011;69555;53.014;8.886;2023-11-21T07:42:53;21.73;;;12.45;;
34144;SDS011;69555;53.014;8.886;2023-11-21T07:47:50;24.67;;;12.77;;
34144;SDS011;69555;53.014;8.886;2023-11-21T07:50:17;21.55;;;12.23;;
34144;SDS011;69555;53.014;8.886;2023-11-21T07:52:44;24.48;;;11.90;;
34144;SDS011;69555;53.014;8.886;2023-11-21T07:55:11;24.00;;;13.32;;
34144;SDS011;69555;53.014;8.886;2023-11-21T07:57:37;23.75;;;12.45;;
34144;SDS011;69555;53.014;8.886;2023-11-21T08:00:04;21.52;;;12.10;;
34144;SDS011;69555;53.014;8.886;2023-11-21T08:02:35;21.90;;;12.85;;
34144;SDS011;69555;53.014;8.886;2023-11-21T08:05:02;19.02;;;12.23;;
34144;SDS011;69555;53.014;8.886;2023-11-21T08:07:28;20.95;;;12.25;;
34144;SDS011;69555;53.014;8.886;2023-11-21T08:09:55;24.35;;;13.00;;
34144;SDS011;69555;53.014;8.886;2023-11-21T08:12:23;20.35;;;12.38;;
34144;SDS011;69555;53.014;8.886;2023-11-21T08:14:50;22.85;;;12.35;;
34144;SDS011;69555;53.014;8.886;2023-11-21T08:17:17;19.75;;;11.60;;
34144;SDS011;69555;53.014;8.886;2023-11-21T08:19:46;25.15;;;12.48;;
34144;SDS011;69555;53.014;8.886;2023-11-21T08:22:15;20.25;;;12.18;;
34144;SDS011;69555;53.014;8.886;2023-11-21T08:24:44;20.63;;;12.27;;
34144;SDS011;69555;53.014;8.886;2023-11-21T08:27:10;18.63;;;11.75;;
34144;SDS011;69555;53.014;8.886;2023-11-21T08:29:37;23.25;;;12.60;;
34144;SDS011;69555;53.014;8.886;2023-11-21T08:32:02;23.65;;;12.63;;
34144;SDS011;69555;53.014;8.886;2023-11-21T08:34:29;24.00;;;12.95;;
34144;SDS011;69555;53.014;8.886;2023-11-21T08:36:56;24.25;;;13.65;;
34144;SDS011;69555;53.014;8.886;2023-11-21T08:39:23;21.80;;;13.02;;
34144;SDS011;69555;53.014;8.886;2023-11-21T08:41:50;22.92;;;12.25;;
34144;SDS011;69555;53.014;8.886;2023-11-21T08:44:17;17.58;;;10.93;;
34144;SDS011;69555;53.014;8.886;2023-11-21T08:46:50;19.15;;;11.25;;
34144;SDS011;69555;53.014;8.886;2023-11-21T08:49:16;20.52;;;11.63;;
34144;SDS011;69555;53.014;8.886;2023-11-21T08:51:44;23.08;;;12.55;;
34144;SDS011;69555;53.014;8.886;2023-11-21T08:54:09;19.73;;;11.50;;
34144;SDS011;69555;53.014;8.886;2023-11-21T08:56:38;18.58;;;11.13;;
34144;SDS011;69555;53.014;8.886;2023-11-21T08:59:04;22.13;;;12.15;;
34144;SDS011;69555;53.014;8.886;2023-11-21T09:01:31;20.95;;;11.80;;
34144;SDS011;69555;53.014;8.886;2023-11-21T09:03:58;21.65;;;12.23;;
34144;SDS011;69555;53.014;8.886;2023-11-21T09:06:25;21.50;;;11.32;;
34144;SDS011;69555;53.014;8.886;2023-11-21T09:08:51;21.65;;;11.93;;
34144;SDS011;69555;53.014;8.886;2023-11-21T09:11:18;24.23;;;12.18;;
34144;SDS011;69555;53.014;8.886;2023-11-21T09:13:45;20.45;;;12.43;;
34144;SDS011;69555;53.014;8.886;2023-11-21T09:16:14;23.77;;;11.00;;
34144;SDS011;69555;53.014;8.886;2023-11-21T09:18:41;20.10;;;11.18;;
34144;SDS011;69555;53.014;8.886;2023-11-21T09:21:08;22.42;;;10.55;;
34144;SDS011;69555;53.014;8.886;2023-11-21T09:23:35;19.60;;;11.15;;
34144;SDS011;69555;53.014;8.886;2023-11-21T09:26:02;24.70;;;11.57;;
34144;SDS011;69555;53.014;8.886;2023-11-21T09:28:28;23.52;;;11.90;;
34144;SDS011;69555;53.014;8.886;2023-11-21T09:30:55;19.23;;;9.88;;
34144;SDS011;69555;53.014;8.886;2023-11-21T09:33:22;19.40;;;11.65;;
34144;SDS011;69555;53.014;8.886;2023-11-21T09:35:49;17.90;;;10.10;;
34144;SDS011;69555;53.014;8.886;2023-11-21T09:38:17;25.30;;;10.77;;
34144;SDS011;69555;53.014;8.886;2023-11-21T09:40:44;18.27;;;10.85;;
34144;SDS011;69555;53.014;8.886;2023-11-21T09:43:15;17.13;;;10.48;;
34144;SDS011;69555;53.014;8.886;2023-11-21T09:45:45;15.32;;;9.90;;
34144;SDS011;69555;53.014;8.886;2023-11-21T09:48:14;15.85;;;10.18;;
34144;SDS011;69555;53.014;8.886;2023-11-21T09:50:42;20.03;;;11.13;;
34144;SDS011;69555;53.014;8.886;2023-11-21T09:53:13;17.55;;;10.07;;
34144;SDS011;69555;53.014;8.886;2023-11-21T09:55:48;16.98;;;9.63;;
34144;SDS011;69555;53.014;8.886;2023-11-21T09:58:17;20.90;;;11.10;;
34144;SDS011;69555;53.014;8.886;2023-11-21T10:00:49;19.05;;;11.10;;
34144;SDS011;69555;53.014;8.886;2023-11-21T10:03:19;15.15;;;10.10;;
34144;SDS011;69555;53.014;8.886;2023-11-21T10:05:48;15.55;;;9.40;;
34144;SDS011;69555;53.014;8.886;2023-11-21T10:08:17;16.83;;;9.93;;
34144;SDS011;69555;53.014;8.886;2023-11-21T10:10:44;17.27;;;10.57;;
34144;SDS011;69555;53.014;8.886;2023-11-21T10:13:17;14.82;;;10.00;;
34144;SDS011;69555;53.014;8.886;2023-11-21T10:15:49;14.27;;;8.82;;
34144;SDS011;69555;53.014;8.886;2023-11-21T10:18:17;47.75;;;11.00;;
34144;SDS011;69555;53.014;8.886;2023-11-21T10:20:44;16.75;;;9.63;;
34144;SDS011;69555;53.014;8.886;2023-11-21T10:23:19;15.77;;;9.55;;
34144;SDS011;69555;53.014;8.886;2023-11-21T10:25:47;17.70;;;10.33;;
34144;SDS011;69555;53.014;8.886;2023-11-21T10:28:15;19.98;;;10.38;;
34144;SDS011;69555;53.014;8.886;2023-11-21T10:30:41;19.63;;;10.40;;
34144;SDS011;69555;53.014;8.886;2023-11-21T10:33:08;16.08;;;10.00;;
34144;SDS011;69555;53.014;8.886;2023-11-21T10:35:46;15.18;;;9.15;;
34144;SDS011;69555;53.014;8.886;2023-11-21T10:38:21;18.80;;;11.05;;
34144;SDS011;69555;53.014;8.886;2023-11-21T10:40:50;20.85;;;12.10;;
34144;SDS011;69555;53.014;8.886;2023-11-21T10:43:17;16.20;;;9.55;;
34144;SDS011;69555;53.014;8.886;2023-11-21T10:45:45;14.50;;;9.35;;
34144;SDS011;69555;53.014;8.886;2023-11-21T10:48:14;16.55;;;9.10;;
34144;SDS011;69555;53.014;8.886;2023-11-21T10:50:45;14.23;;;9.10;;
34144;SDS011;69555;53.014;8.886;2023-11-21T10:53:13;15.85;;;9.27;;
34144;SDS011;69555;53.014;8.886;2023-11-21T10:55:38;17.95;;;10.00;;
34144;SDS011;69555;53.014;8.886;2023-11-21T10:58:05;16.60;;;10.57;;
34144;SDS011;69555;53.014;8.886;2023-11-21T11:00:37;16.15;;;9.10;;
34144;SDS011;69555;53.014;8.886;2023-11-21T11:03:06;17.85;;;10.50;;
34144;SDS011;69555;53.014;8.886;2023-11-21T11:05:39;15.50;;;9.55;;
34144;SDS011;69555;53.014;8.886;2023-11-21T11:08:09;21.08;;;10.00;;
34144;SDS011;69555;53.014;8.886;2023-11-21T11:10:38;15.13;;;9.47;;
34144;SDS011;69555;53.014;8.886;2023-11-21T11:13:06;17.30;;;9.63;;
34144;SDS011;69555;53.014;8.886;2023-11-21T11:15:33;15.60;;;9.73;;
34144;SDS011;69555;53.014;8.886;2023-11-21T11:18:00;18.67;;;9.50;;
34144;SDS011;69555;53.014;8.886;2023-11-21T11:20:34;17.70;;;10.02;;
34144;SDS011;69555;53.014;8.886;2023-11-21T11:28:38;18.73;;;10.40;;
34144;SDS011;69555;53.014;8.886;2023-11-21T11:31:27;20.58;;;11.05;;
34144;SDS011;69555;53.014;8.886;2023-11-21T11:37:06;16.42;;;9.80;;
34144;SDS011;69555;53.014;8.886;2023-11-21T11:39:41;14.45;;;9.27;;
34144;SDS011;69555;53.014;8.886;2023-11-21T11:42:12;14.07;;;9.93;;
34144;SDS011;69555;53.014;8.886;2023-11-21T11:44:46;14.77;;;9.45;;
34144;SDS011;69555;53.014;8.886;2023-11-21T11:52:40;14.88;;;8.68;;
34144;SDS011;69555;53.014;8.886;2023-11-21T11:55:12;16.35;;;8.70;;
34144;SDS011;69555;53.014;8.886;2023-11-21T11:57:39;13.80;;;8.63;;
34144;SDS011;69555;53.014;8.886;2023-11-21T12:02:57;16.00;;;7.70;;
34144;SDS011;69555;53.014;8.886;2023-11-21T12:05:25;15.90;;;8.50;;
34144;SDS011;69555;53.014;8.886;2023-11-21T12:07:57;11.82;;;7.40;;
34144;SDS011;69555;53.014;8.886;2023-11-21T12:10:35;11.10;;;6.63;;
34144;SDS011;69555;53.014;8.886;2023-11-21T12:13:09;13.40;;;7.32;;
34144;SDS011;69555;53.014;8.886;2023-11-21T12:15:38;11.60;;;6.80;;
34144;SDS011;69555;53.014;8.886;2023-11-21T12:18:06;11.90;;;7.85;;
34144;SDS011;69555;53.014;8.886;2023-11-21T12:20:33;12.30;;;6.57;;
34144;SDS011;69555;53.014;8.886;2023-11-21T12:23:05;14.13;;;7.55;;
34144;SDS011;69555;53.014;8.886;2023-11-21T12:25:32;8.43;;;6.65;;
34144;SDS011;69555;53.014;8.886;2023-11-21T12:27:59;12.30;;;7.07;;
34144;SDS011;69555;53.014;8.886;2023-11-21T12:30:27;11.00;;;6.85;;
34144;SDS011;69555;53.014;8.886;2023-11-21T12:32:59;11.65;;;7.15;;
34144;SDS011;69555;53.014;8.886;2023-11-21T12:35:27;12.48;;;7.25;;
34144;SDS011;69555;53.014;8.886;2023-11-21T12:38:00;13.73;;;7.53;;
34144;SDS011;69555;53.014;8.886;2023-11-21T12:40:29;9.85;;;6.53;;
34144;SDS011;69555;53.014;8.886;2023-11-21T12:42:57;12.25;;;6.85;;
34144;SDS011;69555;53.014;8.886;2023-11-21T12:45:27;12.57;;;6.53;;
34144;SDS011;69555;53.014;8.886;2023-11-21T12:47:58;15.80;;;7.47;;
34144;SDS011;69555;53.014;8.886;2023-11-21T12:50:30;17.58;;;7.78;;
34144;SDS011;69555;53.014;8.886;2023-11-21T12:53:06;12.32;;;7.32;;
34144;SDS011;69555;53.014;8.886;2023-11-21T12:55:44;12.13;;;7.22;;
34144;SDS011;69555;53.014;8.886;2023-11-21T12:58:19;10.65;;;6.03;;
34144;SDS011;69555;53.014;8.886;2023-11-21T13:00:51;10.98;;;6.63;;
34144;SDS011;69555;53.014;8.886;2023-11-21T13:03:20;11.13;;;5.78;;
34144;SDS011;69555;53.014;8.886;2023-11-21T13:05:52;11.02;;;6.72;;
34144;SDS011;69555;53.014;8.886;2023-11-21T13:08:21;5.23;;;4.43;;
34144;SDS011;69555;53.014;8.886;2023-11-21T13:10:51;7.35;;;4.55;;
34144;SDS011;69555;53.014;8.886;2023-11-21T13:13:23;7.28;;;4.28;;
34144;SDS011;69555;53.014;8.886;2023-11-21T13:15:52;7.38;;;3.97;;
34144;SDS011;69555;53.014;8.886;2023-11-21T13:18:23;5.53;;;3.80;;
34144;SDS011;69555;53.014;8.886;2023-11-21T13:20:51;5.38;;;3.75;;
34144;SDS011;69555;53.014;8.886;2023-11-21T13:23:19;8.60;;;4.32;;
34144;SDS011;69555;53.014;8.886;2023-11-21T13:25:46;5.40;;;3.97;;
34144;SDS011;69555;53.014;8.886;2023-11-21T13:28:14;6.45;;;4.05;;
34144;SDS011;69555;53.014;8.886;2023-11-21T13:30:50;5.40;;;3.90;;
34144;SDS011;69555;53.014;8.886;2023-11-21T13:33:26;7.38;;;3.83;;
34144;SDS011;69555;53.014;8.886;2023-11-21T13:35:53;5.53;;;3.92;;
34144;SDS011;69555;53.014;8.886;2023-11-21T13:38:22;7.25;;;3.08;;
34144;SDS011;69555;53.014;8.886;2023-11-21T13:40:50;11.55;;;5.03;;
34144;SDS011;69555;53.014;8.886;2023-11-21T13:43:22;7.28;;;3.97;;
34144;SDS011;69555;53.014;8.886;2023-11-21T13:45:52;6.32;;;4.13;;
34144;SDS011;69555;53.014;8.886;2023-11-21T13:48:52;6.53;;;4.13;;
34144;SDS011;69555;53.014;8.886;2023-11-21T13:51:22;5.43;;;3.72;;
34144;SDS011;69555;53.014;8.886;2023-11-21T13:53:57;6.82;;;4.22;;
34144;SDS011;69555;53.014;8.886;2023-11-21T13:56:25;9.95;;;4.25;;
34144;SDS011;69555;53.014;8.886;2023-11-21T13:58:54;7.32;;;4.13;;
34144;SDS011;69555;53.014;8.886;2023-11-21T14:01:22;5.30;;;3.92;;
34144;SDS011;69555;53.014;8.886;2023-11-21T14:04:07;5.53;;;3.70;;
34144;SDS011;69555;53.014;8.886;2023-11-21T14:06:53;5.05;;;3.50;;
34144;SDS011;69555;53.014;8.886;2023-11-21T14:09:21;6.53;;;3.97;;
34144;SDS011;69555;53.014;8.886;2023-11-21T14:11:53;6.25;;;3.80;;
34144;SDS011;69555;53.014;8.886;2023-11-21T14:14:26;6.28;;;3.58;;
34144;SDS011;69555;53.014;8.886;2023-11-21T14:16:56;9.95;;;4.78;;
34144;SDS011;69555;53.014;8.886;2023-11-21T14:19:25;9.95;;;3.50;;
34144;SDS011;69555;53.014;8.886;2023-11-21T14:21:58;6.78;;;3.58;;
34144;SDS011;69555;53.014;8.886;2023-11-21T14:24:25;5.53;;;3.45;;
34144;SDS011;69555;53.014;8.886;2023-11-21T14:26:52;8.57;;;4.10;;
34144;SDS011;69555;53.014;8.886;2023-11-21T14:29:19;5.57;;;3.45;;
34144;SDS011;69555;53.014;8.886;2023-11-21T14:31:49;8.02;;;3.88;;
34144;SDS011;69555;53.014;8.886;2023-11-21T14:34:22;6.15;;;3.95;;
34144;SDS011;69555;53.014;8.886;2023-11-21T14:36:49;5.22;;;3.97;;
34144;SDS011;69555;53.014;8.886;2023-11-21T14:39:16;5.10;;;3.60;;
34144;SDS011;69555;53.014;8.886;2023-11-21T14:41:54;8.10;;;3.88;;
34144;SDS011;69555;53.014;8.886;2023-11-21T14:44:23;4.40;;;3.42;;
34144;SDS011;69555;53.014;8.886;2023-11-21T14:46:53;7.65;;;3.83;;
34144;SDS011;69555;53.014;8.886;2023-11-21T14:49:21;5.28;;;3.78;;
34144;SDS011;69555;53.014;8.886;2023-11-21T14:51:51;9.25;;;3.67;;
34144;SDS011;69555;53.014;8.886;2023-11-21T14:54:32;6.10;;;4.25;;
34144;SDS011;69555;53.014;8.886;2023-11-21T14:57:12;6.43;;;3.67;;